• Join FlightAware (Why Join?)
  • Login
  • US Flag 
12:22AM EDT


 

Airport Tracker/Info


-or-


 

Live Flight TrackerFlight Track Log ✈ EJA982 ✈ 11-May-2014 ✈ KBUR - KBED

Flight Track Log - Related Links

Times and Time Zones

All times are in EDT time to prevent confusion due to time zone crossing. See the EJA982 flight status page for this flight to view local times or setup timezone preferences in your user account.

Time Position Orientation Groundspeed Altitude Reporting Facility
EDT Latitude Longitude Course Direction KTS MPH feet Rate Location/Type
11:41AM 34.2333 -118.4167 80° East 222 255 4,100  Level Southern California TRACON
11:42AM 34.2706 -118.4667 312° West 231 266 7,600 3,720 Climbing Los Angeles Center
11:43AM 34.3308 -118.4403 20° North 245 282 11,600 2,700 Climbing Los Angeles Center
11:45AM 34.3981 -118.3853 34° Northeast 288 331 13,200 1,380 Climbing Los Angeles Center
11:46AM 34.4731 -118.3186 36° Northeast 329 379 14,500 1,260 Climbing Los Angeles Center
11:47AM 34.6270 -117.9777 80° East  Level FlightAware Approximate
11:47AM 34.5100 -118.1939 70° East 396 456 15,800  Level Los Angeles Center
11:48AM 34.5372 -118.0336 78° East 425 489 17,300 1,260 Climbing Los Angeles Center
11:49AM 34.5614 -117.8906 78° East 434 499 18,400 960 Climbing Los Angeles Center
11:50AM 34.5858 -117.7433 79° East 445 512 19,400 1,080 Climbing Los Angeles Center
11:51AM 34.6114 -117.5936 78° East 451 519 20,700 1,140 Climbing Los Angeles Center
11:52AM 34.6400 -117.4117 79° East 457 526 21,800 900 Climbing Los Angeles Center
11:53AM 34.6669 -117.2556 78° East 472 543 22,600 780 Climbing Los Angeles Center
11:54AM 34.6933 -117.0942 79° East 487 560 23,500 900 Climbing Los Angeles Center
11:55AM 34.7203 -116.9306 79° East 493 567 24,500 960 Climbing Los Angeles Center
11:56AM 34.7469 -116.7633 79° East 503 579 25,500 960 Climbing Los Angeles Center
11:57AM 34.7739 -116.5944 79° East 508 585 26,600 1,140 Climbing Los Angeles Center
11:58AM 34.7950 -116.3850 83° East 524 603 27,900 1,080 Climbing Los Angeles Center
11:59AM 34.7939 -116.2042 90° East 535 616 28,900 1,020 Climbing Los Angeles Center
12:00PM 34.8150 -116.0247 82° East 539 620 30,100 1,320 Climbing Los Angeles Center
12:01PM 34.8717 -115.8639 67° East 521 600 31,700 1,440 Climbing Los Angeles Center
12:02PM 34.9278 -115.7042 67° East 519 597 33,100 1,500 Climbing Los Angeles Center
12:03PM 34.9825 -115.5453 67° East 515 593 34,800 1,260 Climbing Los Angeles Center
12:04PM 35.0375 -115.3828 68° East 515 593 35,800 1,140 Climbing Los Angeles Center
12:05PM 35.0981 -115.2108 67° East 521 600 37,200 1,320 Climbing Los Angeles Center
12:06PM 35.1653 -115.0111 68° East 534 615 38,600 840 Climbing Los Angeles Center
12:07PM 35.2211 -114.8428 68° East 537 618 39,000 180 Climbing Los Angeles Center
12:08PM 35.2817 -114.6644 67° East 573 659 39,000  Level Los Angeles Center
12:09PM 35.3406 -114.4853 68° East 575 662 39,000  Level Los Angeles Center
12:10PM 35.4006 -114.3011 68° East 577 664 39,000 540 Level Los Angeles Center
12:11PM 35.4631 -114.1128 68° East 560 644 40,200 960 Climbing Los Angeles Center
12:12PM 35.5197 -113.9428 68° East 542 624 41,000 360 Climbing Los Angeles Center
12:13PM 35.5742 -113.7697 69° East 541 623 41,000  Level Los Angeles Center
12:14PM 35.6325 -113.5936 68° East 551 634 41,000  Level Los Angeles Center
12:15PM 35.6917 -113.4156 68° East 559 643 41,000  Level Los Angeles Center
12:16PM 35.7608 -113.2011 68° East 558 642 41,000  Level Los Angeles Center
12:17PM 35.8169 -113.0214 69° East 558 642 41,000  Level Los Angeles Center
12:18PM 35.8717 -112.8417 69° East 557 641 41,000  Level Los Angeles Center
12:20PM 35.9267 -112.6611 69° East 560 644 41,000  Level Los Angeles Center
12:21PM 35.9789 -112.4903 69° East 551 634 41,000  Level Los Angeles Center
12:22PM 36.0461 -112.2736 69° East 562 647 41,000  Level Los Angeles Center
12:23PM 36.0908 -112.1183 70° East 573 659 41,000  Level Los Angeles Center
12:24PM 36.1544 -111.9128 69° East 556 640 41,000  Level Los Angeles Center
12:25PM 36.2092 -111.7358 69° East 551 634 41,000  Level Los Angeles Center
12:26PM 36.2489 -111.5967 70° East 558 642 41,000  Level Denver Center
12:27PM 36.3039 -111.4169 69° East 559 643 41,000 -420 Level Denver Center
12:28PM 36.3678 -111.1983 70° East 561 646 40,200 -780 Descending Denver Center
12:29PM 36.4219 -111.0142 70° East 565 650 39,500 -600 Descending Denver Center
12:30PM 36.4772 -110.8294 70° East 567 652 39,000 -300 Descending Denver Center
12:31PM 36.5306 -110.6464 70° East 568 654 39,000  Level Denver Center
12:32PM 36.5822 -110.4667 70° East 563 648 39,000  Level Denver Center
12:33PM 36.6336 -110.2856 70° East 562 647 39,000  Level Denver Center
12:34PM 36.6942 -110.0717 70° East 560 644 39,000  Level Denver Center
12:35PM 36.7439 -109.8964 70° East 560 644 39,000  Level Denver Center
12:36PM 36.8011 -109.6931 71° East 559 643 39,000  Level Denver Center
12:37PM 36.8500 -109.5167 71° East 559 643 39,000  Level Denver Center
12:38PM 36.8981 -109.3403 71° East 559 643 39,000  Level Denver Center
12:39PM 36.9556 -109.1356 71° East 559 643 39,000  Level Denver Center
12:40PM 37.0028 -108.9575 72° East 559 643 39,000  Level Denver Center
12:41PM 37.0592 -108.7494 71° East 560 644 39,000  Level Denver Center
12:42PM 37.1064 -108.5717 72° East 560 644 39,000  Level Denver Center
12:43PM 37.1539 -108.3936 71° East 560 644 39,000  Level Denver Center
12:44PM 37.2097 -108.1881 71° East 558 642 39,000  Level Denver Center
12:45PM 37.2564 -108.0092 72° East 559 643 39,000  Level Denver Center
12:46PM 37.3111 -107.7975 72° East 567 652 39,000  Level Denver Center
12:47PM 37.3581 -107.6178 72° East 567 652 39,000  Level Denver Center
12:48PM 37.4125 -107.4058 72° East 569 655 39,000  Level Denver Center
12:49PM 37.4586 -107.2233 72° East 570 656 39,000  Level Denver Center
12:50PM 37.5058 -107.0383 72° East 575 662 39,000  Level Denver Center
12:51PM 37.5592 -106.8253 72° East 574 661 39,000  Level Denver Center
12:52PM 37.6047 -106.6408 73° East 574 661 39,000  Level Denver Center
12:53PM 37.6592 -106.4256 72° East 575 662 39,000  Level Denver Center
12:54PM 37.7042 -106.2406 73° East 576 663 39,000  Level Denver Center
12:55PM 37.7528 -106.0258 74° East 576 663 39,000  Level Denver Center
12:56PM 37.7994 -105.8319 73° East 576 663 39,000  Level Denver Center
12:57PM 37.8481 -105.6383 72° East 576 663 39,000  Level Denver Center
12:58PM 37.8947 -105.4428 73° East 577 664 39,000  Level Denver Center
12:59PM 37.9397 -105.2475 74° East 577 664 39,000  Level Denver Center
01:01PM 37.9869 -105.0500 73° East 578 665 39,000  Level Denver Center
01:02PM 38.0322 -104.8522 74° East 582 670 39,000  Level Denver Center
01:03PM 38.0869 -104.6136 74° East 582 670 39,000  Level Denver Center
01:04PM 38.1325 -104.4136 74° East 584 672 39,000  Level Denver Center
01:05PM 38.1769 -104.2125 74° East 584 672 39,000  Level Denver Center
01:06PM 38.2219 -104.0111 74° East 589 678 39,000  Level Denver Center
01:07PM 38.2661 -103.8103 74° East 589 678 39,000  Level Denver Center
01:08PM 38.3108 -103.6069 74° East 590 679 39,000  Level Denver Center
01:09PM 38.3572 -103.3942 74° East 594 684 39,000  Level Denver Center
01:10PM 38.4069 -103.1650 74° East 596 686 39,000  Level Denver Center
01:11PM 38.4475 -102.9689 75° East 597 687 39,000  Level Denver Center
01:12PM 38.4956 -102.7392 75° East 598 688 39,000  Level Denver Center
01:13PM 38.5381 -102.5406 75° East 601 692 39,000  Level Denver Center
01:14PM 38.5778 -102.3461 75° East 595 685 39,000  Level Denver Center
01:15PM 38.6225 -102.1258 75° East 576 663 39,000  Level Denver Center
01:16PM 38.6597 -101.9417 75° East 561 646 39,000  Level Denver Center
01:17PM 38.7033 -101.7244 76° East 561 646 39,000  Level Denver Center
01:18PM 38.7408 -101.5403 75° East 559 643 39,000  Level Denver Center
01:19PM 38.7769 -101.3528 76° East 562 647 39,000  Level Denver Center
01:20PM 38.8211 -101.1317 76° East 567 652 39,000  Level Denver Center
01:21PM 38.8572 -100.9411 76° East 570 656 39,000  Level Denver Center
01:22PM 38.9000 -100.7197 76° East 574 661 39,000  Level Denver Center
01:23PM 38.9361 -100.5267 76° East 574 661 39,000  Level Denver Center
01:24PM 38.9775 -100.3031 77° East 576 663 39,000  Level Denver Center
01:25PM 39.0108 -100.1222 77° East 576 663 39,000  Level Denver Center
01:26PM 39.0489 -99.9158 77° East 580 667 39,000  Level Denver Center
01:27PM 39.0892 -99.6908 77° East 580 667 39,000  Level Denver Center
01:28PM 39.1242 -99.4956 77° East 585 673 39,000  Level Denver Center
01:29PM 39.1650 -99.2689 77° East 584 672 39,000  Level Denver Center
01:30PM 39.2019 -99.0553 77° East 584 672 39,000  Level Denver Center
01:31PM 39.2367 -98.8556 77° East 582 670 39,000  Level Denver Center
01:32PM 39.2722 -98.6528 77° East 582 670 39,000  Level Denver Center
01:33PM 39.3058 -98.4494 78° East 580 667 39,000  Level Denver Center
01:34PM 39.3403 -98.2464 78° East 580 667 39,000  Level Denver Center
01:36PM 39.3861 -97.9708 78° East 574 661 39,000  Level Kansas City Center
01:37PM 39.4192 -97.7642 78° East 574 661 39,000  Level Kansas City Center
01:38PM 39.4522 -97.5653 78° East 571 657 39,000  Level Kansas City Center
01:39PM 39.4906 -97.3333 78° East 566 651 39,000  Level Kansas City Center
01:40PM 39.5153 -97.1658 79° East 566 651 39,000  Level Kansas City Center
01:41PM 39.5539 -96.9264 78° East 566 651 39,000 240 Level Kansas City Center
01:42PM 39.5822 -96.7331 79° East 568 654 39,600 780 Climbing Kansas City Center
01:43PM 39.5911 -96.5369 87° East 546 628 40,700 660 Climbing Kansas City Center
01:44PM 39.6003 -96.3408 86° East 546 628 41,000 120 Climbing Kansas City Center
01:45PM 39.6117 -96.1406 86° East 553 636 41,000  Level Kansas City Center
01:46PM 39.6256 -95.9006 86° East 554 638 41,000  Level Kansas City Center
01:47PM 39.6358 -95.7028 86° East 550 633 41,000  Level Kansas City Center
01:48PM 39.6475 -95.5033 86° East 550 633 41,000  Level Kansas City Center
01:49PM 39.6603 -95.3044 85° East 550 633 41,000  Level Kansas City Center
01:50PM 39.6717 -95.1078 86° East 545 627 41,000  Level Kansas City Center
01:51PM 39.6872 -94.9106 84° East 545 627 41,000  Level Kansas City Center
01:52PM 39.7058 -94.7131 83° East 546 628 41,000  Level Kansas City Center
01:53PM 39.7283 -94.4775 83° East 546 628 41,000  Level Kansas City Center
01:54PM 39.7631 -94.2842 77° East 549 632 41,000  Level Kansas City Center
01:55PM 39.8100 -94.0819 73° East 550 633 41,000  Level Kansas City Center
01:57PM 39.8494 -93.8944 75° East 554 638 41,000  Level Kansas City Center
01:58PM 39.8908 -93.7069 74° East 550 633 41,000  Level Kansas City Center
01:59PM 39.9336 -93.5183 73° East 548 631 41,000  Level Kansas City Center
02:00PM 39.9736 -93.3242 75° East 552 635 41,000  Level Kansas City Center
02:01PM 40.0261 -93.0983 73° East 552 635 41,000  Level Kansas City Center
02:02PM 40.0672 -92.9069 74° East 551 634 41,000  Level Kansas City Center
02:03PM 40.1081 -92.7147 74° East 551 634 41,000  Level Kansas City Center
02:04PM 40.1478 -92.5225 75° East 550 633 41,000  Level Kansas City Center
02:05PM 40.1933 -92.3069 74° East 555 639 41,000  Level Kansas City Center
02:06PM 40.2331 -92.1156 75° East 558 642 41,000  Level Kansas City Center
02:07PM 40.2719 -91.9208 75° East 558 642 41,000  Level Kansas City Center
02:08PM 40.3106 -91.7289 75° East 557 641 41,000  Level Kansas City Center
02:09PM 40.3556 -91.4964 76° East 556 640 41,000  Level Kansas City Center
02:10PM 40.3947 -91.3003 75° East 557 641 41,000  Level Kansas City Center
02:11PM 40.4303 -91.1200 75° East 557 641 41,000  Level Kansas City Center
02:12PM 40.4758 -90.8844 76° East 557 641 41,000  Level Kansas City Center
02:13PM 40.5069 -90.7256 76° East 557 641 41,000  Level Chicago Center
02:14PM 40.5436 -90.5281 76° East 557 641 41,000  Level Chicago Center
02:15PM 40.5806 -90.3292 76° East 559 643 41,000  Level Chicago Center
02:16PM 40.6225 -90.1056 76° East 560 644 41,000  Level Chicago Center
02:17PM 40.6594 -89.9061 76° East 560 644 41,000  Level Chicago Center
02:18PM 40.6908 -89.7039 78° East 561 646 41,000  Level Chicago Center
02:19PM 40.7197 -89.4978 79° East 574 661 41,000  Level Chicago Center
02:20PM 40.7475 -89.2933 80° East 574 661 41,000  Level Chicago Center
02:21PM 40.7750 -89.0861 80° East 573 659 41,000  Level Chicago Center
02:22PM 40.8072 -88.8389 80° East 572 658 41,000  Level Chicago Center
02:23PM 40.8411 -88.6403 77° East 567 652 41,000  Level Chicago Center
02:24PM 40.8936 -88.4428 71° East 568 654 41,000  Level Chicago Center
02:25PM 40.9433 -88.2458 71° East 570 656 41,000  Level Chicago Center
02:26PM 40.9939 -88.0472 71° East 575 662 41,000  Level Chicago Center
02:27PM 41.0542 -87.8117 71° East 571 657 41,000  Level Chicago Center
02:28PM 41.1033 -87.6142 72° East 570 656 41,000  Level Chicago Center
02:29PM 41.1531 -87.4161 72° East 569 655 41,000  Level Chicago Center
02:30PM 41.2014 -87.2189 72° East 569 655 41,000  Level Chicago Center
02:31PM 41.2506 -87.0200 72° East 570 656 41,000  Level Chicago Center
02:32PM 41.3078 -86.7811 72° East 568 654 41,000  Level Chicago Center
02:33PM 41.3492 -86.6072 72° East 567 652 41,000  Level Chicago Center
02:34PM 41.3972 -86.4056 72° East 569 655 41,000  Level Chicago Center
02:36PM 41.4533 -86.1642 73° East 569 655 41,000  Level Chicago Center
02:37PM 41.4994 -85.9636 73° East 567 652 41,000  Level Chicago Center
02:38PM 41.5458 -85.7631 73° East 567 652 41,000  Level Chicago Center
02:39PM 41.5892 -85.5722 73° East 566 651 41,000  Level Chicago Center
02:40PM 41.6339 -85.3717 73° East 566 651 41,000  Level Chicago Center
02:41PM 41.6881 -85.1344 73° East 582 670 41,000  Level Chicago Center
02:42PM 41.7322 -84.9394 73° East 554 638 41,000  Level Chicago Center
02:43PM 41.7753 -84.7397 74° East 559 643 41,000  Level Chicago Center
02:44PM 41.8186 -84.5411 74° East 559 643 41,000  Level Chicago Center
02:45PM 41.8619 -84.3394 74° East 560 644 41,000  Level Chicago Center
02:46PM 41.9139 -84.0986 74° East 563 648 41,000  Level Chicago Center
02:47PM 41.9581 -83.8914 74° East 563 648 41,000  Level Chicago Center
02:48PM 42.0028 -83.6758 74° East 563 648 41,000  Level Cleveland Center
02:49PM 42.0439 -83.4611 75° East 563 648 41,000  Level Cleveland Center
02:50PM 42.0581 -83.2464 85° East 569 655 41,000  Level Cleveland Center
02:51PM 42.0686 -83.0167 86° East 569 655 41,000  Level Cleveland Center
02:52PM 42.0800 -82.8042 86° East 570 656 41,000  Level Cleveland Center
02:53PM 42.0869 -82.5925 87° East 570 656 41,000  Level Cleveland Center
02:54PM 42.0978 -82.3789 86° East 571 657 41,000  Level Cleveland Center
02:55PM 42.1064 -82.1650 87° East 574 661 41,000  Level Cleveland Center
02:56PM 42.1167 -81.9111 87° East 574 661 41,000  Level Cleveland Center
02:57PM 42.1247 -81.6944 87° East 574 661 41,000  Level Cleveland Center
02:58PM 42.1311 -81.4886 88° East 550 633 41,000  Level Cleveland Center
02:59PM 42.1383 -81.2817 87° East 545 627 41,000  Level Cleveland Center
03:00PM 42.1456 -81.0692 87° East 556 640 41,000  Level Cleveland Center
03:01PM 42.1511 -80.8581 88° East 556 640 41,000  Level Cleveland Center
03:02PM 42.1658 -80.6497 84° East 555 639 41,000  Level Cleveland Center
03:03PM 42.1856 -80.4456 83° East 548 631 41,000  Level Cleveland Center
03:04PM 42.2047 -80.2406 83° East 545 627 41,000  Level Cleveland Center
03:06PM 42.2242 -79.9972 84° East 551 634 41,000  Level Cleveland Center
03:07PM 42.2408 -79.8017 83° East 542 624 41,000  Level Cleveland Center
03:08PM 42.2578 -79.6056 83° East 533 613 41,000  Level Cleveland Center
03:09PM 42.2725 -79.4094 84° East 529 609 41,000  Level Cleveland Center
03:10PM 42.2886 -79.2075 84° East 542 624 41,000  Level Cleveland Center
03:11PM 42.3081 -78.9636 84° East 545 627 41,000  Level Cleveland Center
03:12PM 42.3236 -78.7564 84° East 546 628 41,000  Level Cleveland Center
03:13PM 42.3389 -78.5544 84° East 543 625 41,000  Level Cleveland Center
03:14PM 42.3525 -78.3525 85° East 543 625 41,000  Level Cleveland Center
03:15PM 42.3661 -78.1500 85° East 543 625 41,000  Level Cleveland Center
03:16PM 42.3803 -77.9464 85° East 547 629 41,000  Level Cleveland Center
03:17PM 42.3972 -77.7014 85° East 551 634 41,000  Level Cleveland Center
03:18PM 42.4089 -77.4967 86° East 553 636 41,000  Level Cleveland Center
03:19PM 42.4233 -77.2914 84° East 554 638 41,000  Level Cleveland Center
03:20PM 42.4344 -77.0828 86° East 558 642 41,000  Level Cleveland Center
03:21PM 42.4547 -76.8769 82° East 558 642 41,000  Level Cleveland Center
03:22PM 42.4808 -76.6275 82° East 558 642 41,000  Level Cleveland Center
03:23PM 42.5042 -76.4175 81° East 562 647 41,000  Level Cleveland Center
03:24PM 42.5236 -76.2261 82° East 563 648 41,000  Level Cleveland Center
03:25PM 42.5497 -75.9731 82° East 564 649 41,000 -660 Level Cleveland Center
03:26PM 42.5697 -75.7647 83° East 563 648 39,700 -2,520 Descending Cleveland Center
03:27PM 42.5906 -75.5664 82° East 541 623 35,800 -4,020 Descending Cleveland Center
03:28PM 42.6108 -75.3553 82° East 564 649 31,400 -2,700 Descending Cleveland Center
03:29PM 42.6317 -75.1372 83° East 584 672 30,300 -1,080 Descending Cleveland Center
03:31PM 42.6592 -74.8308 83° East 591 680 29,000 -600 Descending Boston Center
03:32PM 42.6778 -74.6169 83° East 579 666 29,000  Level Boston Center
03:33PM 42.6975 -74.4008 83° East 579 666 29,000  Level Boston Center
03:34PM 42.7147 -74.1872 84° East 578 665 29,000  Level Boston Center
03:35PM 42.7361 -73.9531 83° East 584 672 29,000 -300 Level Boston Center
03:36PM 42.7403 -73.7317 88° East 585 673 28,400 -1,440 Descending Boston Center
03:37PM 42.7167 -73.5203 99° East 565 650 26,200 -2,220 Descending Boston Center
03:38PM 42.6936 -73.3061 98° East 565 650 23,900 -2,220 Descending Boston Center
03:39PM 42.6711 -73.1014 98° East 547 629 21,700 -2,280 Descending Boston Center
03:40PM 42.6472 -72.8989 99° East 518 596 19,300 -1,860 Descending Boston Center
03:41PM 42.6272 -72.7225 99° East 486 559 18,000 -840 Descending Boston Center
03:42PM 42.6064 -72.5483 99° East 467 537 17,700 -1,260 Descending Boston Center
03:43PM 42.5858 -72.3867 100° East 422 486 15,500 -2,220 Descending Boston Center
03:44PM 42.5658 -72.2244 99° East 384 442 13,200 -2,040 Descending Boston Center
03:45PM 42.5506 -72.0933 99° East 358 412 11,400 -1,800 Descending Boston Center
03:46PM 42.5383 -71.9711 98° East 333 383 9,600 -1,800 Descending Boston Center
03:47PM 42.5264 -71.8475 97° East 311 358 7,800 -1,680 Descending Boston Center
03:48PM 42.5169 -71.7372 97° East 299 344 6,300 -900 Descending Boston Center
03:49PM 42.5333 -71.6364 78° East 280 322 6,000 -540 Descending Boston Center
03:50PM 42.5506 -71.5403 76° East 246 283 5,200 -960 Descending Boston Center
03:51PM 42.5664 -71.4575 75° East 231 266 4,100 -1,080 Descending Boston Center
03:52PM 42.5575 -71.3728 98° East 239 275 3,000 -1,080 Descending Boston Center
03:53PM 42.5431 -71.2833 102° East 231 266 2,000 -600 Descending Boston Center
03:54PM 42.5250 -71.2100 108° East 211 243 1,900 -180 Descending Boston Center
03:55PM 42.4806 -71.2053 176° South 161 185 1,700 -600 Descending Boston Center
03:56PM 42.4675 -71.2456 246° West 130 150 700 -660 Descending Boston Center
03:57PM 42.4714 -71.2836 278° West 121 139 400 -300 Descending Boston Center
03:59PM 42.4667 -71.2833 90° East  Level FlightAware Approximate